HESH

Sharm El Sheikh International Airport

Sharm el-Sheikh, Egypt
METAR HESH 220300Z 32004KT CAVOK 16/11 Q1014 NOSIG
Observed Flight Rules
Jan-22 @ 03:00 UTC (an hour ago) Visual Flight Rules
Wind Visibility Clouds
320° at 4 knots 10,000+ meters
  • Clear skies
Temperatures Readings
Current 16°C / 61°F
Dewpoint 11°C / 52°F
Humidity 72%
Altimeter 29.94" Hg
Pressure 1013.92 hPa
Elevation 50
METAR HESH 220300Z 32004KT CAVOK 16/11 Q1014 NOSIG
Observed Flight Rules
Jan-22 @ 03:00 UTC
(an hour ago)
VFR
Wind Visibility
320° at 4 knots 10,000+ meters
Clouds
  • Clear skies
Temperature Dewpoint
16°C / 61°F 11°C / 52°F
Humidity Altimeter Pressure
72% 29.94" Hg 1013.92 hPa